sensor_id;sensor_type;location;lat;lon;timestamp;pressure;altitude;pressure_sealevel;temperature;humidity
80585;BME280;70137;56.482;9.154;2023-07-29T00:00:31;100464.94;;;15.22;72.67
80585;BME280;70137;56.482;9.154;2023-07-29T00:02:56;100460.75;;;15.21;72.04
80585;BME280;70137;56.482;9.154;2023-07-29T00:05:22;100463.94;;;15.23;71.79
80585;BME280;70137;56.482;9.154;2023-07-29T00:07:47;100463.38;;;15.27;71.76
80585;BME280;70137;56.482;9.154;2023-07-29T00:10:12;100461.94;;;15.31;71.90
80585;BME280;70137;56.482;9.154;2023-07-29T00:12:37;100453.53;;;15.36;71.36
80585;BME280;70137;56.482;9.154;2023-07-29T00:15:03;100455.53;;;15.40;71.14
80585;BME280;70137;56.482;9.154;2023-07-29T00:17:28;100453.94;;;15.46;70.91
80585;BME280;70137;56.482;9.154;2023-07-29T00:19:55;100450.91;;;15.49;70.79
80585;BME280;70137;56.482;9.154;2023-07-29T00:22:23;100446.69;;;15.55;70.95
80585;BME280;70137;56.482;9.154;2023-07-29T00:24:52;100441.09;;;15.64;70.91
80585;BME280;70137;56.482;9.154;2023-07-29T00:27:22;100443.28;;;15.67;71.09
80585;BME280;70137;56.482;9.154;2023-07-29T00:29:47;100437.63;;;15.70;71.80
80585;BME280;70137;56.482;9.154;2023-07-29T00:32:12;100436.63;;;15.71;72.21
80585;BME280;70137;56.482;9.154;2023-07-29T00:34:38;100435.44;;;15.74;72.21
80585;BME280;70137;56.482;9.154;2023-07-29T00:37:03;100434.22;;;15.77;72.28
80585;BME280;70137;56.482;9.154;2023-07-29T00:39:31;100438.66;;;15.76;72.80
80585;BME280;70137;56.482;9.154;2023-07-29T00:41:56;100428.41;;;15.74;72.90
80585;BME280;70137;56.482;9.154;2023-07-29T00:44:21;100422.16;;;15.76;73.12
80585;BME280;70137;56.482;9.154;2023-07-29T00:46:47;100422.97;;;15.76;73.45
80585;BME280;70137;56.482;9.154;2023-07-29T00:49:14;100425.78;;;15.74;73.21
80585;BME280;70137;56.482;9.154;2023-07-29T00:51:40;100420.94;;;15.71;73.30
80585;BME280;70137;56.482;9.154;2023-07-29T00:54:05;100415.94;;;15.70;73.43
80585;BME280;70137;56.482;9.154;2023-07-29T00:56:30;100410.91;;;15.68;73.46
80585;BME280;70137;56.482;9.154;2023-07-29T00:58:56;100407.88;;;15.71;74.15
80585;BME280;70137;56.482;9.154;2023-07-29T01:01:25;100417.31;;;15.72;73.90
80585;BME280;70137;56.482;9.154;2023-07-29T01:03:50;100421.38;;;15.75;73.72
80585;BME280;70137;56.482;9.154;2023-07-29T01:09:07;100412.91;;;15.80;73.84
80585;BME280;70137;56.482;9.154;2023-07-29T01:11:41;100405.06;;;15.80;73.93
80585;BME280;70137;56.482;9.154;2023-07-29T01:16:42;100392.41;;;15.77;73.84
80585;BME280;70137;56.482;9.154;2023-07-29T01:19:20;100387.19;;;15.77;74.26
80585;BME280;70137;56.482;9.154;2023-07-29T01:21:54;100389.00;;;15.76;74.07
80585;BME280;70137;56.482;9.154;2023-07-29T01:24:20;100376.72;;;15.77;74.24
80585;BME280;70137;56.482;9.154;2023-07-29T01:26:45;100378.31;;;15.78;74.11
80585;BME280;70137;56.482;9.154;2023-07-29T01:29:10;100384.34;;;15.78;74.01
80585;BME280;70137;56.482;9.154;2023-07-29T01:31:43;100389.38;;;15.80;73.23
80585;BME280;70137;56.482;9.154;2023-07-29T01:34:13;100379.50;;;15.82;73.67
80585;BME280;70137;56.482;9.154;2023-07-29T01:36:42;100376.72;;;15.83;73.65
80585;BME280;70137;56.482;9.154;2023-07-29T01:39:11;100381.31;;;15.81;72.67
80585;BME280;70137;56.482;9.154;2023-07-29T01:41:37;100374.50;;;15.80;72.78
80585;BME280;70137;56.482;9.154;2023-07-29T01:44:04;100371.88;;;15.80;72.51
80585;BME280;70137;56.482;9.154;2023-07-29T01:46:33;100366.66;;;15.80;72.46
80585;BME280;70137;56.482;9.154;2023-07-29T01:48:58;100366.88;;;15.79;72.58
80585;BME280;70137;56.482;9.154;2023-07-29T01:51:24;100358.00;;;15.80;73.08
80585;BME280;70137;56.482;9.154;2023-07-29T01:53:49;100360.63;;;15.80;72.77
80585;BME280;70137;56.482;9.154;2023-07-29T01:56:14;100356.41;;;15.79;72.46
80585;BME280;70137;56.482;9.154;2023-07-29T01:58:40;100361.84;;;15.77;72.65
80585;BME280;70137;56.482;9.154;2023-07-29T02:01:05;100364.47;;;15.77;73.16
80585;BME280;70137;56.482;9.154;2023-07-29T02:03:30;100355.03;;;15.76;73.25
80585;BME280;70137;56.482;9.154;2023-07-29T02:05:55;100361.03;;;15.77;72.53
80585;BME280;70137;56.482;9.154;2023-07-29T02:08:21;100359.44;;;15.76;72.86
80585;BME280;70137;56.482;9.154;2023-07-29T02:10:46;100362.28;;;15.74;72.74
80585;BME280;70137;56.482;9.154;2023-07-29T02:13:15;100360.25;;;15.69;72.89
80585;BME280;70137;56.482;9.154;2023-07-29T02:15:40;100371.53;;;15.63;72.55
80585;BME280;70137;56.482;9.154;2023-07-29T02:18:05;100360.88;;;15.58;73.85
80585;BME280;70137;56.482;9.154;2023-07-29T02:20:32;100360.66;;;15.53;73.47
80585;BME280;70137;56.482;9.154;2023-07-29T02:22:57;100358.69;;;15.49;73.61
80585;BME280;70137;56.482;9.154;2023-07-29T02:25:23;100364.31;;;15.45;73.12
80585;BME280;70137;56.482;9.154;2023-07-29T02:27:48;100362.28;;;15.41;73.53
80585;BME280;70137;56.482;9.154;2023-07-29T02:30:13;100364.31;;;15.39;73.57
80585;BME280;70137;56.482;9.154;2023-07-29T02:32:39;100359.50;;;15.36;74.25
80585;BME280;70137;56.482;9.154;2023-07-29T02:35:04;100364.72;;;15.36;74.05
80585;BME280;70137;56.482;9.154;2023-07-29T02:37:30;100365.75;;;15.35;74.16
80585;BME280;70137;56.482;9.154;2023-07-29T02:39:55;100358.88;;;15.34;74.37
80585;BME280;70137;56.482;9.154;2023-07-29T02:42:21;100356.91;;;15.36;74.48
80585;BME280;70137;56.482;9.154;2023-07-29T02:44:46;100353.28;;;15.37;74.16
80585;BME280;70137;56.482;9.154;2023-07-29T02:47:11;100357.28;;;15.39;74.39
80585;BME280;70137;56.482;9.154;2023-07-29T02:49:37;100359.69;;;15.41;74.32
80585;BME280;70137;56.482;9.154;2023-07-29T02:52:02;100366.72;;;15.40;74.60
80585;BME280;70137;56.482;9.154;2023-07-29T02:54:27;100365.13;;;15.39;74.46
80585;BME280;70137;56.482;9.154;2023-07-29T02:56:53;100354.88;;;15.38;74.66
80585;BME280;70137;56.482;9.154;2023-07-29T02:59:18;100354.28;;;15.36;74.72
80585;BME280;70137;56.482;9.154;2023-07-29T03:01:43;100349.44;;;15.33;74.61
80585;BME280;70137;56.482;9.154;2023-07-29T03:04:09;100350.47;;;15.32;74.79
80585;BME280;70137;56.482;9.154;2023-07-29T03:06:34;100351.47;;;15.31;74.96
80585;BME280;70137;56.482;9.154;2023-07-29T03:08:59;100356.91;;;15.29;74.77
80585;BME280;70137;56.482;9.154;2023-07-29T03:11:25;100357.91;;;15.28;74.99
80585;BME280;70137;56.482;9.154;2023-07-29T03:13:50;100348.25;;;15.29;75.07
80585;BME280;70137;56.482;9.154;2023-07-29T03:16:17;100351.47;;;15.31;74.88
80585;BME280;70137;56.482;9.154;2023-07-29T03:18:44;100356.28;;;15.34;75.42
80585;BME280;70137;56.482;9.154;2023-07-29T03:21:10;100357.69;;;15.36;75.31
80585;BME280;70137;56.482;9.154;2023-07-29T03:23:36;100355.88;;;15.37;75.94
80585;BME280;70137;56.482;9.154;2023-07-29T03:26:03;100354.28;;;15.36;75.54
80585;BME280;70137;56.482;9.154;2023-07-29T03:28:31;100350.06;;;15.35;76.04
80585;BME280;70137;56.482;9.154;2023-07-29T03:30:57;100350.25;;;15.33;75.99
80585;BME280;70137;56.482;9.154;2023-07-29T03:33:24;100356.09;;;15.29;75.72
80585;BME280;70137;56.482;9.154;2023-07-29T03:35:49;100350.66;;;15.24;76.28
80585;BME280;70137;56.482;9.154;2023-07-29T03:38:15;100349.47;;;15.20;76.25
80585;BME280;70137;56.482;9.154;2023-07-29T03:40:41;100349.09;;;15.16;76.10
80585;BME280;70137;56.482;9.154;2023-07-29T03:43:07;100345.06;;;15.13;76.52
80585;BME280;70137;56.482;9.154;2023-07-29T03:45:34;100346.66;;;15.14;76.45
80585;BME280;70137;56.482;9.154;2023-07-29T03:47:59;100341.44;;;15.14;76.38
80585;BME280;70137;56.482;9.154;2023-07-29T03:50:25;100339.03;;;15.13;76.81
80585;BME280;70137;56.482;9.154;2023-07-29T03:52:50;100333.00;;;15.12;76.42
80585;BME280;70137;56.482;9.154;2023-07-29T03:55:16;100338.22;;;15.12;76.63
80585;BME280;70137;56.482;9.154;2023-07-29T03:57:41;100339.03;;;15.13;76.65
80585;BME280;70137;56.482;9.154;2023-07-29T04:00:07;100337.00;;;15.15;76.84
80585;BME280;70137;56.482;9.154;2023-07-29T04:02:34;100336.22;;;15.14;77.32
80585;BME280;70137;56.482;9.154;2023-07-29T04:05:02;100336.22;;;15.14;77.60
80585;BME280;70137;56.482;9.154;2023-07-29T04:07:28;100327.56;;;15.14;78.36
80585;BME280;70137;56.482;9.154;2023-07-29T04:09:53;100332.00;;;15.13;78.83
80585;BME280;70137;56.482;9.154;2023-07-29T04:12:19;100335.41;;;15.14;79.71
80585;BME280;70137;56.482;9.154;2023-07-29T04:14:46;100339.03;;;15.13;80.20
80585;BME280;70137;56.482;9.154;2023-07-29T04:17:12;100344.25;;;15.13;81.20
80585;BME280;70137;56.482;9.154;2023-07-29T04:19:37;100340.25;;;15.10;81.63
80585;BME280;70137;56.482;9.154;2023-07-29T04:22:02;100338.63;;;15.09;82.19
80585;BME280;70137;56.482;9.154;2023-07-29T04:24:28;100346.47;;;15.09;82.16
80585;BME280;70137;56.482;9.154;2023-07-29T04:26:53;100346.06;;;15.12;82.02
80585;BME280;70137;56.482;9.154;2023-07-29T04:29:18;100344.03;;;15.14;82.38
80585;BME280;70137;56.482;9.154;2023-07-29T04:31:44;100341.84;;;15.18;82.01
80585;BME280;70137;56.482;9.154;2023-07-29T04:34:09;100349.28;;;15.21;82.18
80585;BME280;70137;56.482;9.154;2023-07-29T04:36:34;100347.03;;;15.25;82.54
80585;BME280;70137;56.482;9.154;2023-07-29T04:39:00;100348.47;;;15.27;82.16
80585;BME280;70137;56.482;9.154;2023-07-29T04:41:25;100340.44;;;15.29;82.54
80585;BME280;70137;56.482;9.154;2023-07-29T04:43:50;100349.44;;;15.33;82.45
80585;BME280;70137;56.482;9.154;2023-07-29T04:46:16;100351.06;;;15.34;82.57
80585;BME280;70137;56.482;9.154;2023-07-29T04:48:41;100340.22;;;15.37;82.44
80585;BME280;70137;56.482;9.154;2023-07-29T04:51:06;100340.22;;;15.37;82.98
80585;BME280;70137;56.482;9.154;2023-07-29T04:53:32;100344.44;;;15.38;83.30
80585;BME280;70137;56.482;9.154;2023-07-29T04:55:57;100345.03;;;15.40;82.92
80585;BME280;70137;56.482;9.154;2023-07-29T04:58:23;100336.78;;;15.43;82.85
80585;BME280;70137;56.482;9.154;2023-07-29T05:00:48;100341.41;;;15.48;82.94
80585;BME280;70137;56.482;9.154;2023-07-29T05:03:13;100344.00;;;15.54;83.64
80585;BME280;70137;56.482;9.154;2023-07-29T05:05:38;100344.59;;;15.63;83.60
80585;BME280;70137;56.482;9.154;2023-07-29T05:08:04;100345.00;;;15.73;83.54
80585;BME280;70137;56.482;9.154;2023-07-29T05:10:29;100346.94;;;15.84;83.15
80585;BME280;70137;56.482;9.154;2023-07-29T05:12:54;100341.91;;;15.89;83.20
80585;BME280;70137;56.482;9.154;2023-07-29T05:15:20;100336.06;;;15.94;82.94
80585;BME280;70137;56.482;9.154;2023-07-29T05:17:45;100332.59;;;16.00;83.51
80585;BME280;70137;56.482;9.154;2023-07-29T05:20:10;100330.53;;;16.09;83.30
80585;BME280;70137;56.482;9.154;2023-07-29T05:22:36;100323.47;;;16.16;83.08
80585;BME280;70137;56.482;9.154;2023-07-29T05:25:02;100328.69;;;16.22;82.88
80585;BME280;70137;56.482;9.154;2023-07-29T05:27:27;100326.66;;;16.24;83.07
80585;BME280;70137;56.482;9.154;2023-07-29T05:29:52;100325.78;;;16.30;82.78
80585;BME280;70137;56.482;9.154;2023-07-29T05:32:18;100326.19;;;16.34;82.55
80585;BME280;70137;56.482;9.154;2023-07-29T05:34:43;100333.81;;;16.36;82.70
80585;BME280;70137;56.482;9.154;2023-07-29T05:37:08;100318.13;;;16.36;82.19
80585;BME280;70137;56.482;9.154;2023-07-29T05:39:34;100323.53;;;16.41;82.59
80585;BME280;70137;56.482;9.154;2023-07-29T05:41:59;100325.88;;;16.49;82.66
80585;BME280;70137;56.482;9.154;2023-07-29T05:44:27;100335.31;;;16.56;82.33
80585;BME280;70137;56.482;9.154;2023-07-29T05:46:53;100328.84;;;16.59;82.17
80585;BME280;70137;56.482;9.154;2023-07-29T05:49:18;100323.19;;;16.62;82.13
80585;BME280;70137;56.482;9.154;2023-07-29T05:51:43;100323.78;;;16.71;81.87
80585;BME280;70137;56.482;9.154;2023-07-29T05:54:09;100323.88;;;16.82;81.83
80585;BME280;70137;56.482;9.154;2023-07-29T05:56:34;100318.16;;;16.92;82.48
80585;BME280;70137;56.482;9.154;2023-07-29T05:58:59;100320.28;;;17.02;82.01
80585;BME280;70137;56.482;9.154;2023-07-29T06:01:25;100315.31;;;17.19;81.63
80585;BME280;70137;56.482;9.154;2023-07-29T06:03:51;100313.19;;;17.27;81.20
80585;BME280;70137;56.482;9.154;2023-07-29T06:06:16;100318.13;;;17.35;81.18
80585;BME280;70137;56.482;9.154;2023-07-29T06:08:41;100318.28;;;17.40;80.61
80585;BME280;70137;56.482;9.154;2023-07-29T06:11:07;100310.00;;;17.43;81.03
80585;BME280;70137;56.482;9.154;2023-07-29T06:13:32;100310.28;;;17.54;80.80
80585;BME280;70137;56.482;9.154;2023-07-29T06:15:58;100309.41;;;17.60;80.44
80585;BME280;70137;56.482;9.154;2023-07-29T06:18:23;100307.25;;;17.57;80.01
80585;BME280;70137;56.482;9.154;2023-07-29T06:20:49;100315.69;;;17.77;79.99
80585;BME280;70137;56.482;9.154;2023-07-29T06:23:15;100299.72;;;17.97;79.53
80585;BME280;70137;56.482;9.154;2023-07-29T06:25:40;100307.16;;;18.12;78.98
80585;BME280;70137;56.482;9.154;2023-07-29T06:28:05;100307.56;;;18.27;78.08
80585;BME280;70137;56.482;9.154;2023-07-29T06:30:31;100307.50;;;18.34;77.49
80585;BME280;70137;56.482;9.154;2023-07-29T06:32:56;100303.41;;;18.49;77.53
80585;BME280;70137;56.482;9.154;2023-07-29T06:35:21;100302.31;;;18.69;76.51
80585;BME280;70137;56.482;9.154;2023-07-29T06:37:47;100299.38;;;18.77;76.34
80585;BME280;70137;56.482;9.154;2023-07-29T06:40:12;100299.50;;;18.82;76.03
80585;BME280;70137;56.482;9.154;2023-07-29T06:42:37;100294.69;;;18.91;75.78
80585;BME280;70137;56.482;9.154;2023-07-29T06:45:04;100296.97;;;18.99;74.77
80585;BME280;70137;56.482;9.154;2023-07-29T06:47:30;100302.00;;;19.12;74.96
80585;BME280;70137;56.482;9.154;2023-07-29T06:49:55;100303.22;;;19.33;74.25
80585;BME280;70137;56.482;9.154;2023-07-29T06:52:21;100304.28;;;19.32;72.97
80585;BME280;70137;56.482;9.154;2023-07-29T06:54:46;100299.34;;;19.35;72.92
80585;BME280;70137;56.482;9.154;2023-07-29T06:57:11;100298.75;;;19.45;73.55
80585;BME280;70137;56.482;9.154;2023-07-29T06:59:36;100290.38;;;19.48;72.21
80585;BME280;70137;56.482;9.154;2023-07-29T07:02:02;100293.50;;;19.57;71.83
80585;BME280;70137;56.482;9.154;2023-07-29T07:04:27;100290.63;;;19.58;71.75
80585;BME280;70137;56.482;9.154;2023-07-29T07:06:53;100296.25;;;19.50;68.92
80585;BME280;70137;56.482;9.154;2023-07-29T07:09:19;100297.97;;;19.33;70.16
80585;BME280;70137;56.482;9.154;2023-07-29T07:11:44;100289.19;;;19.27;70.99
80585;BME280;70137;56.482;9.154;2023-07-29T07:14:10;100288.78;;;19.47;70.92
80585;BME280;70137;56.482;9.154;2023-07-29T07:16:35;100293.56;;;19.73;70.14
80585;BME280;70137;56.482;9.154;2023-07-29T07:19:02;100280.84;;;19.82;68.78
80585;BME280;70137;56.482;9.154;2023-07-29T07:21:27;100284.34;;;19.88;68.50
80585;BME280;70137;56.482;9.154;2023-07-29T07:23:52;100290.56;;;19.82;68.89
80585;BME280;70137;56.482;9.154;2023-07-29T07:26:18;100286.38;;;19.69;69.22
80585;BME280;70137;56.482;9.154;2023-07-29T07:28:43;100279.19;;;19.64;69.44
80585;BME280;70137;56.482;9.154;2023-07-29T07:31:08;100280.78;;;19.65;69.61
80585;BME280;70137;56.482;9.154;2023-07-29T07:33:34;100286.34;;;19.81;69.59
80585;BME280;70137;56.482;9.154;2023-07-29T07:35:59;100277.28;;;19.88;69.53
80585;BME280;70137;56.482;9.154;2023-07-29T07:38:24;100278.91;;;20.06;69.87
80585;BME280;70137;56.482;9.154;2023-07-29T07:40:56;100279.31;;;19.98;68.73
80585;BME280;70137;56.482;9.154;2023-07-29T07:43:22;100272.34;;;19.92;68.94
80585;BME280;70137;56.482;9.154;2023-07-29T07:45:47;100277.59;;;19.92;69.30
80585;BME280;70137;56.482;9.154;2023-07-29T07:48:12;100278.06;;;19.89;67.59
80585;BME280;70137;56.482;9.154;2023-07-29T07:50:38;100282.56;;;20.05;67.60
80585;BME280;70137;56.482;9.154;2023-07-29T07:53:04;100278.41;;;20.38;68.23
80585;BME280;70137;56.482;9.154;2023-07-29T07:55:29;100273.69;;;20.40;67.05
80585;BME280;70137;56.482;9.154;2023-07-29T07:57:55;100267.28;;;20.36;66.88
80585;BME280;70137;56.482;9.154;2023-07-29T08:00:20;100266.47;;;20.47;66.68
80585;BME280;70137;56.482;9.154;2023-07-29T08:02:45;100269.97;;;20.52;66.12
80585;BME280;70137;56.482;9.154;2023-07-29T08:05:11;100266.63;;;20.57;66.65
80585;BME280;70137;56.482;9.154;2023-07-29T08:07:36;100268.69;;;20.55;66.81
80585;BME280;70137;56.482;9.154;2023-07-29T08:10:02;100261.56;;;20.55;67.33
80585;BME280;70137;56.482;9.154;2023-07-29T08:12:27;100257.69;;;20.58;67.31
80585;BME280;70137;56.482;9.154;2023-07-29T08:14:52;100266.84;;;20.55;66.84
80585;BME280;70137;56.482;9.154;2023-07-29T08:17:17;100263.72;;;20.42;66.61
80585;BME280;70137;56.482;9.154;2023-07-29T08:19:43;100266.72;;;20.34;67.33
80585;BME280;70137;56.482;9.154;2023-07-29T08:22:08;100263.00;;;20.29;67.14
80585;BME280;70137;56.482;9.154;2023-07-29T08:24:34;100263.22;;;20.28;67.49
80585;BME280;70137;56.482;9.154;2023-07-29T08:27:02;100261.94;;;20.30;67.75
80585;BME280;70137;56.482;9.154;2023-07-29T08:29:27;100251.28;;;20.37;67.14
80585;BME280;70137;56.482;9.154;2023-07-29T08:31:53;100261.75;;;20.49;67.09
80585;BME280;70137;56.482;9.154;2023-07-29T08:34:20;100263.75;;;20.58;67.47
80585;BME280;70137;56.482;9.154;2023-07-29T08:36:45;100279.84;;;20.62;67.25
80585;BME280;70137;56.482;9.154;2023-07-29T08:39:10;100268.22;;;20.58;67.13
80585;BME280;70137;56.482;9.154;2023-07-29T08:44:23;100267.72;;;20.61;66.72
80585;BME280;70137;56.482;9.154;2023-07-29T08:46:49;100269.16;;;20.52;66.34
80585;BME280;70137;56.482;9.154;2023-07-29T08:49:16;100266.47;;;20.47;67.84
80585;BME280;70137;56.482;9.154;2023-07-29T08:51:45;100271.31;;;20.55;67.51
80585;BME280;70137;56.482;9.154;2023-07-29T08:54:11;100267.72;;;20.61;67.50
80585;BME280;70137;56.482;9.154;2023-07-29T08:56:37;100270.13;;;20.63;66.89
80585;BME280;70137;56.482;9.154;2023-07-29T08:59:03;100266.19;;;20.65;67.19
80585;BME280;70137;56.482;9.154;2023-07-29T09:01:30;100265.19;;;20.66;66.92
80585;BME280;70137;56.482;9.154;2023-07-29T09:03:56;100271.66;;;20.58;66.85
80585;BME280;70137;56.482;9.154;2023-07-29T09:06:21;100271.56;;;20.53;66.90
80585;BME280;70137;56.482;9.154;2023-07-29T09:08:49;100265.97;;;20.50;67.64
80585;BME280;70137;56.482;9.154;2023-07-29T09:11:16;100273.09;;;20.49;67.26
80585;BME280;70137;56.482;9.154;2023-07-29T09:13:42;100272.19;;;20.44;67.53
80585;BME280;70137;56.482;9.154;2023-07-29T09:16:08;100269.13;;;20.35;67.91
80585;BME280;70137;56.482;9.154;2023-07-29T09:18:34;100265.13;;;20.33;67.89
80585;BME280;70137;56.482;9.154;2023-07-29T09:21:00;100266.09;;;20.26;68.09
80585;BME280;70137;56.482;9.154;2023-07-29T09:23:26;100269.06;;;20.30;68.34
80585;BME280;70137;56.482;9.154;2023-07-29T09:26:00;100265.13;;;20.33;68.61
80585;BME280;70137;56.482;9.154;2023-07-29T09:28:26;100261.31;;;20.40;68.10
80585;BME280;70137;56.482;9.154;2023-07-29T09:30:53;100271.59;;;20.42;68.11
80585;BME280;70137;56.482;9.154;2023-07-29T09:33:18;100265.34;;;20.43;67.33
80585;BME280;70137;56.482;9.154;2023-07-29T09:35:44;100265.88;;;20.45;67.75
80585;BME280;70137;56.482;9.154;2023-07-29T09:38:14;100261.66;;;20.44;67.91
80585;BME280;70137;56.482;9.154;2023-07-29T09:40:40;100259.47;;;20.41;67.10
80585;BME280;70137;56.482;9.154;2023-07-29T09:43:09;100258.94;;;20.39;68.51
80585;BME280;70137;56.482;9.154;2023-07-29T09:45:35;100261.47;;;20.34;68.70
80585;BME280;70137;56.482;9.154;2023-07-29T09:48:02;100268.72;;;20.26;68.73
80585;BME280;70137;56.482;9.154;2023-07-29T09:50:28;100268.63;;;20.21;68.68
80585;BME280;70137;56.482;9.154;2023-07-29T09:52:55;100263.75;;;20.13;69.11
80585;BME280;70137;56.482;9.154;2023-07-29T09:55:22;100272.13;;;20.10;69.82
80585;BME280;70137;56.482;9.154;2023-07-29T09:57:53;100260.06;;;19.97;70.03
80585;BME280;70137;56.482;9.154;2023-07-29T10:00:18;100276.00;;;19.91;70.77
80585;BME280;70137;56.482;9.154;2023-07-29T10:02:44;100275.25;;;19.79;71.35
80585;BME280;70137;56.482;9.154;2023-07-29T10:05:10;100279.84;;;19.71;71.08
80585;BME280;70137;56.482;9.154;2023-07-29T10:07:39;100282.00;;;19.75;71.54
80585;BME280;70137;56.482;9.154;2023-07-29T10:10:06;100279.38;;;19.75;71.71
80585;BME280;70137;56.482;9.154;2023-07-29T10:12:32;100277.06;;;19.78;71.81
80585;BME280;70137;56.482;9.154;2023-07-29T10:15:07;100282.56;;;19.77;71.40
80585;BME280;70137;56.482;9.154;2023-07-29T10:17:35;100276.88;;;19.68;69.11
80585;BME280;70137;56.482;9.154;2023-07-29T10:20:01;100283.41;;;19.65;70.16
80585;BME280;70137;56.482;9.154;2023-07-29T10:22:29;100281.34;;;19.67;70.80
80585;BME280;70137;56.482;9.154;2023-07-29T10:25:03;100273.78;;;19.71;70.63
80585;BME280;70137;56.482;9.154;2023-07-29T10:27:30;100285.13;;;19.71;71.84
80585;BME280;70137;56.482;9.154;2023-07-29T10:29:58;100271.63;;;19.68;72.16
80585;BME280;70137;56.482;9.154;2023-07-29T10:32:25;100270.38;;;19.59;71.85
80585;BME280;70137;56.482;9.154;2023-07-29T10:34:51;100276.31;;;19.54;72.28
80585;BME280;70137;56.482;9.154;2023-07-29T10:37:17;100266.41;;;19.44;72.72
80585;BME280;70137;56.482;9.154;2023-07-29T10:39:52;100266.16;;;19.46;73.61
80585;BME280;70137;56.482;9.154;2023-07-29T10:42:18;100273.13;;;19.52;73.59
80585;BME280;70137;56.482;9.154;2023-07-29T10:44:47;100276.81;;;19.51;73.45
80585;BME280;70137;56.482;9.154;2023-07-29T10:47:17;100266.72;;;19.48;74.03
80585;BME280;70137;56.482;9.154;2023-07-29T10:49:49;100263.66;;;19.51;74.46
80585;BME280;70137;56.482;9.154;2023-07-29T10:52:17;100265.38;;;19.57;74.54
80585;BME280;70137;56.482;9.154;2023-07-29T10:54:52;100260.69;;;19.59;72.98
80585;BME280;70137;56.482;9.154;2023-07-29T10:57:37;100261.91;;;19.68;73.03
80585;BME280;70137;56.482;9.154;2023-07-29T11:00:06;100268.38;;;19.78;73.18
80585;BME280;70137;56.482;9.154;2023-07-29T11:02:36;100264.81;;;19.84;73.20
80585;BME280;70137;56.482;9.154;2023-07-29T11:05:06;100264.44;;;19.92;73.30
80585;BME280;70137;56.482;9.154;2023-07-29T11:07:47;100259.38;;;20.02;73.22
80585;BME280;70137;56.482;9.154;2023-07-29T11:10:13;100258.88;;;20.05;72.17
80585;BME280;70137;56.482;9.154;2023-07-29T11:12:49;100262.56;;;20.04;71.56
80585;BME280;70137;56.482;9.154;2023-07-29T11:15:27;100259.31;;;19.85;70.70
80585;BME280;70137;56.482;9.154;2023-07-29T11:17:54;100262.00;;;19.73;71.77
80585;BME280;70137;56.482;9.154;2023-07-29T11:20:22;100258.66;;;19.78;71.99
80585;BME280;70137;56.482;9.154;2023-07-29T11:22:48;100253.94;;;19.92;71.98
80585;BME280;70137;56.482;9.154;2023-07-29T11:25:15;100253.16;;;20.08;71.72
80585;BME280;70137;56.482;9.154;2023-07-29T11:27:41;100253.50;;;20.28;71.95
80585;BME280;70137;56.482;9.154;2023-07-29T11:30:13;100255.44;;;20.50;71.17
80585;BME280;70137;56.482;9.154;2023-07-29T11:32:40;100241.78;;;20.70;69.71
80585;BME280;70137;56.482;9.154;2023-07-29T11:35:19;100249.31;;;21.00;69.51
80585;BME280;70137;56.482;9.154;2023-07-29T11:37:46;100248.38;;;21.28;68.12
80585;BME280;70137;56.482;9.154;2023-07-29T11:40:16;100249.47;;;21.54;68.11
80585;BME280;70137;56.482;9.154;2023-07-29T11:42:43;100248.78;;;21.63;65.81
80585;BME280;70137;56.482;9.154;2023-07-29T11:45:09;100248.72;;;21.58;66.76
80585;BME280;70137;56.482;9.154;2023-07-29T11:47:35;100244.22;;;21.54;65.57
80585;BME280;70137;56.482;9.154;2023-07-29T11:50:05;100243.59;;;21.47;65.03
80585;BME280;70137;56.482;9.154;2023-07-29T11:52:32;100236.38;;;21.37;66.23
80585;BME280;70137;56.482;9.154;2023-07-29T11:54:58;100246.78;;;21.49;65.86
80585;BME280;70137;56.482;9.154;2023-07-29T11:57:23;100236.41;;;21.64;66.05
80585;BME280;70137;56.482;9.154;2023-07-29T11:59:49;100242.25;;;21.98;64.30
80585;BME280;70137;56.482;9.154;2023-07-29T12:02:16;100235.94;;;22.26;63.40
80585;BME280;70137;56.482;9.154;2023-07-29T12:04:43;100236.47;;;22.60;64.11
80585;BME280;70137;56.482;9.154;2023-07-29T12:07:09;100232.22;;;22.59;61.34
80585;BME280;70137;56.482;9.154;2023-07-29T12:09:36;100227.75;;;22.60;60.50
80585;BME280;70137;56.482;9.154;2023-07-29T12:12:03;100232.41;;;22.47;61.67
80585;BME280;70137;56.482;9.154;2023-07-29T12:14:29;100232.66;;;22.46;60.54
80585;BME280;70137;56.482;9.154;2023-07-29T12:16:54;100233.13;;;22.38;61.63
80585;BME280;70137;56.482;9.154;2023-07-29T12:19:20;100235.47;;;22.34;62.29
80585;BME280;70137;56.482;9.154;2023-07-29T12:21:47;100227.47;;;22.24;62.75
80585;BME280;70137;56.482;9.154;2023-07-29T12:24:13;100234.88;;;22.22;62.79
80585;BME280;70137;56.482;9.154;2023-07-29T12:26:40;100232.75;;;22.24;63.25
80585;BME280;70137;56.482;9.154;2023-07-29T12:29:16;100242.44;;;22.13;62.24
80585;BME280;70137;56.482;9.154;2023-07-29T12:31:42;100239.69;;;22.03;62.58
80585;BME280;70137;56.482;9.154;2023-07-29T12:34:08;100244.63;;;21.94;62.91
80585;BME280;70137;56.482;9.154;2023-07-29T12:36:48;100229.03;;;21.93;63.20
80585;BME280;70137;56.482;9.154;2023-07-29T12:39:21;100237.03;;;22.03;63.51
80585;BME280;70137;56.482;9.154;2023-07-29T12:41:48;100224.47;;;22.10;62.71
80585;BME280;70137;56.482;9.154;2023-07-29T12:44:14;100221.59;;;22.17;63.10
80585;BME280;70137;56.482;9.154;2023-07-29T12:46:40;100210.25;;;22.16;62.35
80585;BME280;70137;56.482;9.154;2023-07-29T12:49:05;100216.31;;;22.12;62.16
80585;BME280;70137;56.482;9.154;2023-07-29T12:51:31;100212.31;;;22.09;62.96
80585;BME280;70137;56.482;9.154;2023-07-29T12:53:56;100207.28;;;22.08;62.77